createdAt,value
2018-11-27T00:01:24.284Z,8.10
2018-11-27T00:03:59.318Z,9.30
2018-11-27T00:06:34.769Z,8.67
2018-11-27T00:26:26.496Z,9.00
2018-11-27T00:29:01.316Z,9.13
2018-11-27T00:51:37.500Z,7.67
2018-11-27T00:54:11.512Z,7.97
2018-11-27T01:14:02.427Z,7.40
2018-11-27T01:16:36.434Z,6.63
2018-11-27T01:39:17.338Z,7.73
2018-11-27T01:41:52.158Z,7.63
2018-11-27T02:01:44.512Z,6.83
2018-11-27T02:04:18.511Z,7.47
2018-11-27T02:24:08.917Z,7.10
2018-11-27T02:26:42.407Z,6.13
2018-11-27T02:29:16.418Z,6.03
2018-11-27T02:49:08.764Z,6.07
2018-11-27T02:51:44.414Z,6.80
2018-11-27T02:54:20.470Z,6.30
2018-11-27T02:56:54.477Z,6.33
2018-11-27T02:59:28.495Z,6.20
2018-11-27T03:19:20.423Z,5.47
2018-11-27T03:21:55.453Z,5.07
2018-11-27T03:41:47.392Z,4.97
2018-11-27T03:44:21.405Z,4.27
2018-11-27T03:46:57.974Z,4.57
2018-11-27T04:06:49.391Z,3.83
2018-11-27T04:09:23.404Z,4.30
2018-11-27T04:29:15.747Z,4.60
2018-11-27T04:31:50.579Z,4.63
2018-11-27T04:34:25.610Z,4.67
2018-11-27T04:54:18.570Z,3.57
2018-11-27T04:56:53.193Z,3.90
2018-11-27T05:36:48.334Z,4.03
2018-11-27T05:39:23.562Z,3.77
2018-11-27T05:59:15.500Z,5.10
2018-11-27T06:01:51.559Z,3.97
2018-11-27T06:41:52.630Z,6.00
2018-11-27T06:44:29.718Z,5.30
2018-11-27T06:47:06.799Z,5.97
2018-11-27T06:49:42.647Z,6.23
2018-11-27T06:52:19.526Z,6.40
2018-11-27T06:55:01.526Z,6.40
2018-11-27T06:57:38.820Z,5.10
2018-11-27T07:00:15.689Z,5.33
2018-11-27T07:02:59.529Z,5.50
2018-11-27T07:05:35.584Z,6.00
2018-11-27T07:08:10.650Z,5.80
2018-11-27T07:10:48.521Z,5.57
2018-11-27T07:13:29.159Z,6.27
2018-11-27T07:16:04.726Z,6.00
2018-11-27T07:18:39.558Z,5.40
2018-11-27T07:21:14.588Z,6.20
2018-11-27T07:23:49.618Z,5.40
2018-11-27T07:26:26.700Z,5.67
2018-11-27T07:29:02.124Z,6.23
2018-11-27T07:31:37.596Z,6.47
2018-11-27T07:34:14.469Z,6.40
2018-11-27T07:36:50.731Z,6.07
2018-11-27T07:39:27.609Z,5.73
2018-11-27T07:42:07.150Z,5.67
2018-11-27T08:02:00.717Z,6.67
2018-11-27T08:04:36.144Z,7.63
2018-11-27T08:07:11.601Z,6.30
2018-11-27T08:09:48.689Z,7.57
2018-11-27T08:12:29.333Z,6.50
2018-11-27T08:32:23.641Z,7.63
2018-11-27T08:34:58.672Z,6.67
2018-11-27T08:37:33.914Z,6.37
2018-11-27T08:40:10.376Z,7.33
2018-11-27T08:42:47.665Z,5.93
2018-11-27T08:45:25.773Z,6.40
2018-11-27T08:48:06.750Z,6.03
2018-11-27T08:50:42.195Z,6.77
2018-11-27T08:53:18.656Z,5.87
2018-11-27T08:55:56.758Z,5.80
2018-11-27T08:58:34.193Z,6.67
2018-11-27T09:01:10.715Z,6.17
2018-11-27T09:03:46.605Z,5.00
2018-11-27T09:06:23.654Z,5.30
2018-11-27T09:08:59.737Z,6.00
2018-11-27T09:11:36.793Z,6.30
2018-11-27T09:14:11.822Z,5.90
2018-11-27T09:16:49.939Z,6.23
2018-11-27T09:36:41.050Z,5.00
2018-11-27T09:39:18.742Z,5.73
2018-11-27T09:41:53.778Z,5.20
2018-11-27T10:01:46.738Z,5.53
2018-11-27T10:04:22.798Z,5.63
2018-11-27T10:24:17.805Z,4.37
2018-11-27T10:26:57.753Z,4.60
2018-11-27T10:49:36.806Z,4.90
2018-11-27T10:52:12.656Z,4.43
2018-11-27T10:54:48.714Z,3.43
2018-11-27T11:14:44.744Z,4.10
2018-11-27T11:34:36.881Z,3.80
2018-11-27T11:37:11.917Z,4.70
2018-11-27T11:39:48.795Z,3.73
2018-11-27T11:59:41.756Z,3.60
2018-11-27T12:02:17.197Z,3.70
2018-11-27T12:22:10.343Z,6.57
2018-11-27T12:24:46.340Z,5.67
2018-11-27T12:27:25.760Z,5.97
2018-11-27T12:30:04.696Z,5.23
2018-11-27T12:52:49.875Z,5.03
2018-11-27T12:55:26.953Z,5.13
2018-11-27T13:15:22.174Z,5.33
2018-11-27T13:17:57.820Z,5.60
2018-11-27T13:20:35.305Z,4.93
2018-11-27T13:23:12.189Z,5.33
2018-11-27T13:25:52.136Z,5.20
2018-11-27T13:45:51.031Z,5.30
2018-11-27T13:48:25.042Z,4.97
2018-11-27T13:50:59.048Z,5.40
2018-11-27T13:53:35.928Z,5.23
2018-11-27T13:56:11.370Z,5.27
2018-11-27T14:16:09.043Z,5.60
2018-11-27T14:18:44.072Z,6.17
2018-11-27T14:38:43.996Z,5.20
2018-11-27T14:41:25.994Z,5.20
2018-11-27T14:44:02.255Z,6.03
2018-11-27T14:46:37.080Z,6.43
2018-11-27T14:49:15.394Z,5.23
2018-11-27T15:09:16.137Z,5.37
2018-11-27T15:11:55.058Z,5.33
2018-11-27T15:31:49.043Z,5.50
2018-11-27T15:34:24.296Z,6.10
2018-11-27T15:36:59.110Z,5.27
2018-11-27T15:56:50.844Z,5.83
2018-11-27T15:59:28.632Z,6.53
2018-11-27T16:19:23.342Z,7.00
2018-11-27T16:39:17.116Z,7.93
2018-11-27T16:41:53.382Z,8.17
2018-11-27T17:01:47.987Z,8.00
2018-11-27T17:04:24.446Z,8.30
2018-11-27T17:06:59.072Z,8.50
2018-11-27T17:09:35.128Z,9.87
2018-11-27T17:12:11.186Z,8.27
2018-11-27T17:32:03.119Z,9.13
2018-11-27T17:34:42.059Z,9.80
2018-11-27T17:54:42.775Z,10.10
2018-11-27T17:57:22.127Z,11.37
2018-11-27T18:00:03.301Z,11.67
2018-11-27T18:02:39.154Z,10.77
2018-11-27T18:05:14.192Z,10.20
2018-11-27T18:25:07.147Z,10.13
2018-11-27T18:27:42.177Z,9.33
2018-11-27T18:47:39.037Z,10.13
2018-11-27T18:50:17.339Z,10.30
2018-11-27T18:52:57.323Z,10.20
2018-11-27T18:55:32.319Z,9.17
2018-11-27T18:58:07.355Z,9.10
2018-11-27T19:18:07.276Z,9.20
2018-11-27T19:20:41.286Z,11.90
2018-11-27T19:40:36.092Z,9.93
2018-11-27T19:43:11.736Z,10.13
2018-11-27T19:45:47.184Z,10.53
2018-11-27T19:48:22.623Z,10.87
2018-11-27T19:50:56.428Z,10.83
2018-11-27T20:10:51.435Z,10.87
2018-11-27T20:13:37.329Z,10.73
2018-11-27T20:33:32.741Z,10.50
2018-11-27T20:36:08.593Z,11.67
2018-11-27T20:38:44.446Z,12.10
2018-11-27T20:41:19.685Z,11.70
2018-11-27T20:43:55.743Z,12.60
2018-11-27T21:03:48.293Z,12.30
2018-11-27T21:06:22.302Z,11.37
2018-11-27T21:26:14.438Z,11.17
2018-11-27T21:46:09.448Z,10.80
2018-11-27T21:48:45.505Z,11.83
2018-11-27T22:11:27.423Z,11.03
2018-11-27T22:14:04.508Z,11.47
2018-11-27T22:16:39.541Z,10.77
2018-11-27T22:19:14.368Z,10.33
2018-11-27T22:21:49.400Z,9.87
2018-11-27T22:24:23.407Z,9.83
2018-11-27T22:26:58.442Z,10.90
2018-11-27T22:29:33.475Z,9.83
2018-11-27T22:32:08.509Z,9.90
2018-11-27T22:34:43.545Z,9.40
2018-11-27T22:37:17.551Z,8.90
2018-11-27T22:39:51.563Z,10.00
2018-11-27T22:42:27.830Z,9.07
2018-11-27T22:45:06.549Z,9.57
2018-11-27T22:47:42.808Z,9.80
2018-11-27T22:50:18.048Z,8.50
2018-11-27T22:52:53.491Z,8.60
2018-11-27T22:55:28.527Z,9.73
2018-11-27T22:58:02.531Z,9.87
2018-11-27T23:00:42.279Z,9.03
2018-11-27T23:03:17.513Z,9.20
2018-11-27T23:05:52.546Z,8.87
2018-11-27T23:08:26.558Z,9.40
2018-11-27T23:11:02.410Z,9.43
2018-11-27T23:13:40.732Z,10.27
2018-11-27T23:16:15.547Z,9.30
2018-11-27T23:18:50.381Z,9.97
2018-11-27T23:21:25.409Z,9.40
2018-11-27T23:23:59.941Z,8.97
2018-11-27T23:26:33.429Z,8.67
2018-11-27T23:29:07.445Z,8.57
2018-11-27T23:31:44.526Z,9.43
2018-11-27T23:34:19.554Z,8.00
2018-11-27T23:36:54.382Z,8.37
2018-11-27T23:39:28.805Z,8.23
2018-11-27T23:42:02.460Z,8.10
2018-11-27T23:44:36.989Z,8.27
2018-11-27T23:47:10.423Z,8.10
2018-11-27T23:49:45.455Z,8.10
2018-11-27T23:52:19.874Z,8.07
2018-11-27T23:54:54.502Z,7.77
2018-11-27T23:57:28.506Z,7.43
